createdAt,value
2023-05-05T00:00:25.189Z,66.17
2023-05-05T00:02:51.617Z,66.58
2023-05-05T00:05:18.013Z,65.87
2023-05-05T00:07:49.439Z,66.50
2023-05-05T00:10:15.817Z,66.05
2023-05-05T00:15:27.080Z,66.67
2023-05-05T00:17:56.955Z,67.48
2023-05-05T00:20:23.392Z,67.13
2023-05-05T00:22:58.056Z,66.76
2023-05-05T00:25:24.530Z,67.41
2023-05-05T00:27:57.008Z,67.81
2023-05-05T00:30:24.250Z,68.30
2023-05-05T00:32:51.586Z,68.29
2023-05-05T00:35:29.508Z,67.95
2023-05-05T00:37:56.854Z,67.91
2023-05-05T00:40:23.673Z,67.92
2023-05-05T00:42:53.427Z,67.78
2023-05-05T00:45:23.986Z,68.24
2023-05-05T00:47:58.764Z,67.62
2023-05-05T00:50:30.195Z,68.47
2023-05-05T00:53:00.342Z,67.90
2023-05-05T00:58:14.876Z,68.23
2023-05-05T01:00:45.305Z,68.30
2023-05-05T01:03:20.377Z,68.00
2023-05-05T01:06:03.445Z,67.78
2023-05-05T01:09:00.532Z,68.93
2023-05-05T01:11:35.698Z,68.86
2023-05-05T01:14:21.133Z,68.55
2023-05-05T01:17:04.312Z,69.34
2023-05-05T01:20:11.103Z,69.57
2023-05-05T01:22:53.147Z,70.51
2023-05-05T01:25:49.301Z,71.32
2023-05-05T01:28:56.234Z,71.67
2023-05-05T01:31:58.412Z,73.69
2023-05-05T01:34:33.573Z,75.27
2023-05-05T01:37:25.592Z,75.35
2023-05-05T01:40:08.226Z,76.94
2023-05-05T01:42:44.362Z,78.33
2023-05-05T01:45:16.305Z,79.60
2023-05-05T01:47:47.458Z,80.44
2023-05-05T01:50:16.298Z,80.65
2023-05-05T01:52:51.324Z,81.48
2023-05-05T01:55:21.090Z,82.91
2023-05-05T01:57:52.546Z,83.34
2023-05-05T02:00:22.172Z,83.93
2023-05-05T02:02:50.448Z,84.83
2023-05-05T02:05:19.429Z,85.02
2023-05-05T02:07:50.219Z,86.06
2023-05-05T02:10:19.545Z,86.54
2023-05-05T02:12:49.664Z,86.17
2023-05-05T02:15:24.409Z,86.38
2023-05-05T02:17:59.441Z,86.49
2023-05-05T02:20:31.632Z,87.25
2023-05-05T02:23:07.943Z,87.11
2023-05-05T02:25:51.237Z,89.53
2023-05-05T02:28:29.221Z,92.64
2023-05-05T02:31:02.412Z,94.72
2023-05-05T02:33:33.283Z,95.77
2023-05-05T02:36:08.815Z,96.82
2023-05-05T02:38:40.290Z,97.93
2023-05-05T02:41:18.173Z,98.56
2023-05-05T02:43:48.780Z,100.00
2023-05-05T02:46:18.289Z,100.00
2023-05-05T02:48:44.979Z,100.00
2023-05-05T02:51:16.678Z,100.00
2023-05-05T02:53:46.301Z,100.00
2023-05-05T02:56:26.659Z,100.00
2023-05-05T02:59:16.622Z,100.00
2023-05-05T03:02:15.717Z,100.00
2023-05-05T03:05:01.428Z,100.00
2023-05-05T03:07:52.382Z,100.00
2023-05-05T03:10:24.651Z,100.00
2023-05-05T03:13:02.468Z,100.00
2023-05-05T03:15:37.573Z,100.00
2023-05-05T03:18:09.865Z,100.00
2023-05-05T03:20:40.638Z,100.00
2023-05-05T03:23:15.447Z,100.00
2023-05-05T03:25:49.717Z,100.00
2023-05-05T03:28:19.125Z,100.00
2023-05-05T03:30:45.627Z,100.00
2023-05-05T03:33:12.065Z,100.00
2023-05-05T03:35:38.764Z,100.00
2023-05-05T03:38:12.298Z,100.00
2023-05-05T03:40:45.392Z,100.00
2023-05-05T03:43:12.117Z,100.00
2023-05-05T03:45:38.694Z,100.00
2023-05-05T03:48:09.934Z,100.00
2023-05-05T03:50:36.670Z,100.00
2023-05-05T03:53:03.181Z,100.00
2023-05-05T03:55:39.317Z,100.00
2023-05-05T03:58:05.721Z,100.00
2023-05-05T04:00:40.524Z,100.00
2023-05-05T04:03:07.166Z,100.00
2023-05-05T04:05:39.605Z,100.00
2023-05-05T04:08:06.155Z,100.00
2023-05-05T04:10:32.547Z,100.00
2023-05-05T04:13:02.482Z,100.00
2023-05-05T04:15:30.926Z,100.00
2023-05-05T04:17:57.494Z,100.00
2023-05-05T04:20:27.923Z,100.00
2023-05-05T04:22:54.355Z,100.00
2023-05-05T04:25:20.685Z,100.00
2023-05-05T04:27:50.114Z,100.00
2023-05-05T04:30:19.466Z,100.00
2023-05-05T04:32:45.940Z,100.00
2023-05-05T04:35:15.585Z,100.00
2023-05-05T04:37:45.177Z,100.00
2023-05-05T04:40:17.863Z,100.00
2023-05-05T04:42:45.793Z,90.83
2023-05-05T04:45:13.328Z,86.47
2023-05-05T04:47:42.704Z,88.26
2023-05-05T04:50:12.036Z,88.89
2023-05-05T04:52:40.759Z,85.64
2023-05-05T04:55:13.306Z,77.64
2023-05-05T04:57:39.707Z,71.94
2023-05-05T05:00:11.019Z,69.63
2023-05-05T05:02:41.454Z,66.69
2023-05-05T05:05:13.511Z,64.35
2023-05-05T05:07:40.014Z,63.04
2023-05-05T05:10:07.181Z,62.41
2023-05-05T05:12:37.100Z,61.98
2023-05-05T05:15:04.005Z,59.77
2023-05-05T05:17:30.515Z,57.88
2023-05-05T05:20:06.514Z,57.67
2023-05-05T05:22:33.144Z,55.38
2023-05-05T05:25:03.058Z,54.47
2023-05-05T05:27:32.223Z,53.01
2023-05-05T05:29:59.888Z,52.09
2023-05-05T05:32:37.086Z,51.94
2023-05-05T05:35:07.401Z,50.66
2023-05-05T05:37:36.969Z,50.06
2023-05-05T05:40:05.424Z,49.37
2023-05-05T05:42:34.506Z,48.85
2023-05-05T05:45:01.339Z,49.16
2023-05-05T05:47:30.644Z,48.37
2023-05-05T05:50:04.960Z,50.26
2023-05-05T05:52:31.619Z,49.06
2023-05-05T05:55:01.669Z,47.49
2023-05-05T05:57:28.074Z,47.62
2023-05-05T05:59:55.300Z,48.15
2023-05-05T06:02:33.644Z,47.30
2023-05-05T06:05:02.898Z,46.78
2023-05-05T06:07:31.888Z,46.63
2023-05-05T06:09:58.234Z,46.63
2023-05-05T06:12:29.229Z,47.12
2023-05-05T06:14:58.347Z,50.46
2023-05-05T06:17:27.338Z,53.97
2023-05-05T06:19:59.624Z,56.52
2023-05-05T06:22:27.045Z,58.13
2023-05-05T06:27:39.549Z,61.09
2023-05-05T06:30:07.200Z,62.00
2023-05-05T06:32:36.377Z,64.34
2023-05-05T06:35:09.430Z,64.79
2023-05-05T06:37:38.442Z,65.88
2023-05-05T06:40:09.692Z,67.33
2023-05-05T06:42:36.619Z,67.91
2023-05-05T06:45:09.254Z,66.34
2023-05-05T06:47:36.327Z,66.07
2023-05-05T06:50:16.442Z,67.24
2023-05-05T06:52:42.822Z,66.67
2023-05-05T06:55:18.110Z,67.61
2023-05-05T06:57:44.503Z,66.58
2023-05-05T07:00:17.725Z,66.53
2023-05-05T07:02:44.196Z,66.42
2023-05-05T07:05:10.625Z,65.74
2023-05-05T07:07:40.564Z,66.96
2023-05-05T07:10:10.096Z,66.78
2023-05-05T07:12:39.269Z,66.25
2023-05-05T07:15:23.378Z,66.55
2023-05-05T07:17:55.555Z,66.24
2023-05-05T07:20:32.051Z,65.82
2023-05-05T07:22:58.446Z,66.20
2023-05-05T07:28:13.498Z,65.69
2023-05-05T07:30:43.728Z,65.88
2023-05-05T07:33:15.617Z,66.58
2023-05-05T07:35:41.997Z,64.96
2023-05-05T07:38:10.261Z,64.24
2023-05-05T07:40:40.153Z,64.25
2023-05-05T07:43:06.654Z,64.24
2023-05-05T07:45:33.089Z,63.99
2023-05-05T07:48:00.722Z,63.17
2023-05-05T07:50:30.526Z,62.57
2023-05-05T07:53:06.172Z,63.68
2023-05-05T07:55:42.421Z,63.05
2023-05-05T07:58:13.295Z,63.40
2023-05-05T08:00:39.939Z,62.33
2023-05-05T08:03:12.502Z,62.03
2023-05-05T08:05:39.116Z,60.53
2023-05-05T08:08:13.425Z,60.24
2023-05-05T08:10:42.674Z,59.19
2023-05-05T08:13:09.094Z,58.77
2023-05-05T08:15:38.713Z,58.84
2023-05-05T08:18:05.201Z,58.04
2023-05-05T08:20:31.647Z,57.76
2023-05-05T08:23:02.101Z,58.28
2023-05-05T08:25:31.719Z,56.25
2023-05-05T08:28:04.480Z,55.49
2023-05-05T08:30:34.969Z,53.75
2023-05-05T08:33:04.996Z,54.66
2023-05-05T08:35:33.969Z,52.84
2023-05-05T08:38:00.329Z,52.52
2023-05-05T08:40:42.311Z,52.75
2023-05-05T08:43:11.411Z,54.98
2023-05-05T08:45:42.165Z,55.38
2023-05-05T08:48:11.951Z,55.07
2023-05-05T08:50:43.369Z,55.10
2023-05-05T08:53:15.196Z,54.76
2023-05-05T08:55:52.373Z,55.11
2023-05-05T08:58:21.886Z,55.49
2023-05-05T09:00:51.857Z,56.12
2023-05-05T09:08:43.276Z,56.08
2023-05-05T09:11:09.668Z,56.62
2023-05-05T09:13:36.048Z,55.75
2023-05-05T09:16:02.542Z,56.73
2023-05-05T09:21:24.680Z,57.38
2023-05-05T09:24:08.572Z,57.49
2023-05-05T09:27:04.148Z,58.55
2023-05-05T09:29:30.577Z,58.77
2023-05-05T09:32:10.751Z,56.66
2023-05-05T09:34:38.002Z,55.84
2023-05-05T09:37:04.498Z,56.90
2023-05-05T09:39:30.957Z,56.36
2023-05-05T09:41:58.610Z,57.46
2023-05-05T09:44:36.251Z,58.57
2023-05-05T09:47:21.991Z,57.92
2023-05-05T09:49:59.199Z,60.22
2023-05-05T09:52:26.401Z,60.49
2023-05-05T09:55:00.158Z,60.57
2023-05-05T09:57:34.856Z,60.99
2023-05-05T10:00:06.216Z,61.55
2023-05-05T10:02:38.299Z,61.21
2023-05-05T10:05:16.340Z,62.06
2023-05-05T10:07:47.985Z,61.47
2023-05-05T10:10:23.655Z,62.37
2023-05-05T10:12:50.487Z,62.74
2023-05-05T10:15:25.183Z,60.85
2023-05-05T10:18:06.869Z,60.19
2023-05-05T10:20:38.386Z,70.19
2023-05-05T10:23:10.392Z,83.62
2023-05-05T10:29:01.593Z,92.88
2023-05-05T10:31:54.546Z,97.88
2023-05-05T10:34:31.688Z,99.19
2023-05-05T10:37:06.275Z,98.31
2023-05-05T10:39:37.002Z,99.26
2023-05-05T10:42:07.403Z,98.49
2023-05-05T10:44:34.071Z,97.42
2023-05-05T10:47:05.532Z,97.27
2023-05-05T10:49:45.626Z,100.00
2023-05-05T10:52:37.780Z,100.00
2023-05-05T10:55:39.666Z,100.00
2023-05-05T10:58:47.113Z,100.00
2023-05-05T11:01:38.831Z,100.00
2023-05-05T11:04:22.920Z,100.00
2023-05-05T11:07:25.878Z,100.00
2023-05-05T11:09:56.993Z,100.00
2023-05-05T11:12:26.947Z,100.00
2023-05-05T11:15:27.552Z,100.00
2023-05-05T11:18:23.479Z,100.00
2023-05-05T11:21:07.597Z,100.00
2023-05-05T11:23:34.268Z,100.00
2023-05-05T11:29:22.538Z,100.00
2023-05-05T11:32:11.380Z,100.00
2023-05-05T11:34:57.328Z,100.00
2023-05-05T11:37:33.719Z,100.00
2023-05-05T11:40:23.631Z,100.00
2023-05-05T11:43:04.852Z,100.00
2023-05-05T11:45:50.093Z,100.00
2023-05-05T11:48:27.089Z,100.00
2023-05-05T11:54:00.073Z,100.00
2023-05-05T11:56:29.461Z,100.00
2023-05-05T11:59:12.984Z,100.00
2023-05-05T12:01:43.794Z,100.00
2023-05-05T12:04:14.665Z,100.00
2023-05-05T12:06:49.898Z,100.00
2023-05-05T12:09:17.984Z,100.00
2023-05-05T12:11:58.418Z,100.00
2023-05-05T12:14:25.328Z,100.00
2023-05-05T12:17:10.358Z,100.00
2023-05-05T12:19:37.135Z,100.00
2023-05-05T12:22:04.791Z,100.00
2023-05-05T12:24:33.398Z,100.00
2023-05-05T12:27:10.291Z,100.00
2023-05-05T12:32:38.372Z,100.00
2023-05-05T12:35:11.189Z,100.00
2023-05-05T12:37:38.140Z,100.00
2023-05-05T12:40:28.632Z,100.00
2023-05-05T12:42:55.025Z,100.00
2023-05-05T12:45:21.578Z,100.00
2023-05-05T12:47:56.477Z,100.00
2023-05-05T12:50:33.600Z,100.00
2023-05-05T12:53:02.933Z,100.00
2023-05-05T12:55:43.315Z,100.00
2023-05-05T12:58:09.915Z,100.00
2023-05-05T13:01:20.143Z,100.00
2023-05-05T13:03:47.098Z,100.00
2023-05-05T13:06:26.795Z,100.00
2023-05-05T13:08:53.204Z,100.00
2023-05-05T13:11:19.602Z,100.00
2023-05-05T13:13:47.222Z,100.00
2023-05-05T13:16:13.665Z,100.00
2023-05-05T13:19:03.334Z,100.00
2023-05-05T13:21:36.138Z,100.00
2023-05-05T13:24:19.055Z,100.00
2023-05-05T13:26:53.157Z,100.00
2023-05-05T13:29:20.628Z,100.00
2023-05-05T13:31:47.315Z,100.00
2023-05-05T13:34:22.297Z,100.00
2023-05-05T13:36:48.708Z,100.00
2023-05-05T13:39:17.577Z,100.00
2023-05-05T13:41:48.582Z,100.00
2023-05-05T13:44:23.224Z,100.00
2023-05-05T13:46:53.100Z,100.00
2023-05-05T13:49:20.133Z,100.00
2023-05-05T13:51:56.588Z,100.00
2023-05-05T13:54:27.100Z,100.00
2023-05-05T13:56:56.208Z,100.00
2023-05-05T13:59:22.846Z,100.00
2023-05-05T14:04:29.631Z,100.00
2023-05-05T14:07:02.181Z,100.00
2023-05-05T14:09:28.572Z,100.00
2023-05-05T14:11:58.135Z,100.00
2023-05-05T14:14:27.294Z,100.00
2023-05-05T14:16:54.067Z,100.00
2023-05-05T14:19:22.737Z,100.00
2023-05-05T14:21:50.283Z,100.00
2023-05-05T14:24:16.676Z,100.00
2023-05-05T14:26:51.915Z,100.00
2023-05-05T14:29:18.317Z,100.00
2023-05-05T14:31:47.581Z,100.00
2023-05-05T14:34:17.206Z,100.00
2023-05-05T14:36:43.563Z,100.00
2023-05-05T14:39:12.797Z,100.00
2023-05-05T14:41:41.995Z,100.00
2023-05-05T14:44:08.385Z,100.00
2023-05-05T14:46:37.741Z,100.00
2023-05-05T14:49:07.232Z,100.00
2023-05-05T14:51:33.691Z,100.00
2023-05-05T14:54:20.409Z,100.00
2023-05-05T14:56:53.663Z,100.00
2023-05-05T14:59:23.326Z,100.00
2023-05-05T15:01:52.618Z,100.00
2023-05-05T15:04:21.861Z,100.00
2023-05-05T15:06:54.279Z,100.00
2023-05-05T15:09:20.804Z,100.00
2023-05-05T15:11:51.346Z,100.00
2023-05-05T15:14:20.615Z,100.00
2023-05-05T15:16:54.714Z,100.00
2023-05-05T15:19:21.754Z,100.00
2023-05-05T15:21:55.628Z,100.00
2023-05-05T15:24:25.065Z,100.00
2023-05-05T15:26:51.539Z,100.00
2023-05-05T15:29:18.603Z,100.00
2023-05-05T15:31:48.817Z,100.00
2023-05-05T15:34:15.294Z,100.00
2023-05-05T15:36:44.711Z,100.00
2023-05-05T15:39:13.814Z,100.00
2023-05-05T15:41:40.256Z,100.00
2023-05-05T15:44:09.519Z,100.00
2023-05-05T15:46:39.652Z,99.58
2023-05-05T15:49:07.768Z,100.00
2023-05-05T15:51:34.261Z,100.00
2023-05-05T15:54:00.802Z,98.50
2023-05-05T15:56:27.562Z,99.63
2023-05-05T15:58:59.020Z,100.00
2023-05-05T16:01:25.596Z,100.00
2023-05-05T16:03:52.107Z,99.76
2023-05-05T16:06:22.129Z,99.16
2023-05-05T16:08:51.595Z,97.36
2023-05-05T16:11:24.887Z,99.79
2023-05-05T16:13:52.114Z,99.30
2023-05-05T16:16:18.879Z,99.92
2023-05-05T16:18:46.004Z,98.13
2023-05-05T16:21:15.876Z,96.75
2023-05-05T16:23:42.430Z,96.74
2023-05-05T16:26:12.399Z,96.66
2023-05-05T16:28:41.694Z,94.16
2023-05-05T16:33:52.145Z,97.30
2023-05-05T16:36:24.441Z,94.44
2023-05-05T16:38:50.873Z,95.35
2023-05-05T16:41:22.313Z,95.79
2023-05-05T16:43:49.478Z,95.31
2023-05-05T16:48:56.291Z,97.41
2023-05-05T16:54:17.428Z,94.14
2023-05-05T16:56:43.854Z,96.18
2023-05-05T16:59:16.758Z,95.22
2023-05-05T17:01:43.393Z,95.67
2023-05-05T17:04:13.486Z,99.01
2023-05-05T17:06:43.013Z,91.52
2023-05-05T17:09:09.539Z,95.37
2023-05-05T17:11:38.893Z,93.41
2023-05-05T17:14:05.235Z,95.85
2023-05-05T17:16:31.752Z,95.77
2023-05-05T17:19:00.534Z,98.37
2023-05-05T17:21:30.074Z,100.00
2023-05-05T17:23:56.579Z,100.00
2023-05-05T17:26:27.892Z,100.00
2023-05-05T17:28:54.273Z,100.00
2023-05-05T17:31:21.055Z,100.00
2023-05-05T17:33:50.430Z,99.23
2023-05-05T17:36:19.882Z,96.97
2023-05-05T17:38:46.281Z,98.72
2023-05-05T17:41:16.690Z,99.80
2023-05-05T17:43:50.509Z,97.42
2023-05-05T17:46:22.514Z,100.00
2023-05-05T17:48:48.963Z,100.00
2023-05-05T17:51:20.597Z,100.00
2023-05-05T17:53:49.935Z,100.00
2023-05-05T17:56:17.246Z,100.00
2023-05-05T17:58:51.523Z,100.00
2023-05-05T18:01:26.866Z,100.00
2023-05-05T18:03:53.465Z,100.00
2023-05-05T18:06:19.973Z,100.00
2023-05-05T18:08:55.076Z,100.00
2023-05-05T18:11:31.134Z,100.00
2023-05-05T18:14:00.321Z,100.00
2023-05-05T18:16:26.734Z,100.00
2023-05-05T18:18:53.361Z,100.00
2023-05-05T18:21:23.526Z,100.00
2023-05-05T18:23:50.001Z,100.00
2023-05-05T18:26:19.424Z,100.00
2023-05-05T18:28:48.783Z,100.00
2023-05-05T18:31:15.476Z,100.00
2023-05-05T18:33:46.894Z,100.00
2023-05-05T18:36:15.088Z,100.00
2023-05-05T18:38:41.467Z,100.00
2023-05-05T18:41:15.881Z,100.00
2023-05-05T18:43:49.625Z,100.00
2023-05-05T18:46:19.314Z,100.00
2023-05-05T18:48:47.167Z,100.00
2023-05-05T18:51:20.156Z,100.00
2023-05-05T18:53:46.518Z,100.00
2023-05-05T18:56:17.943Z,100.00
2023-05-05T18:58:44.390Z,100.00
2023-05-05T19:01:10.960Z,100.00
2023-05-05T19:03:37.458Z,100.00
2023-05-05T19:06:10.090Z,100.00
2023-05-05T19:08:43.858Z,100.00
2023-05-05T19:11:14.666Z,100.00
2023-05-05T19:13:56.926Z,100.00
2023-05-05T19:16:32.798Z,100.00
2023-05-05T19:19:00.670Z,100.00
2023-05-05T19:21:30.505Z,100.00
2023-05-05T19:23:59.591Z,100.00
2023-05-05T19:26:26.214Z,100.00
2023-05-05T19:28:55.982Z,100.00
2023-05-05T19:31:27.421Z,100.00
2023-05-05T19:34:05.907Z,100.00
2023-05-05T19:36:44.044Z,100.00
2023-05-05T19:39:10.419Z,100.00
2023-05-05T19:41:39.175Z,100.00
2023-05-05T19:44:09.679Z,100.00
2023-05-05T19:46:36.075Z,100.00
2023-05-05T19:51:53.653Z,100.00
2023-05-05T19:54:23.602Z,100.00
2023-05-05T19:56:51.792Z,100.00
2023-05-05T19:59:18.119Z,100.00
2023-05-05T20:01:44.638Z,100.00
2023-05-05T20:04:20.229Z,100.00
2023-05-05T20:06:46.606Z,100.00
2023-05-05T20:09:17.332Z,100.00
2023-05-05T20:11:46.531Z,100.00
2023-05-05T20:14:19.170Z,100.00
2023-05-05T20:16:48.534Z,100.00
2023-05-05T20:19:14.940Z,100.00
2023-05-05T20:21:43.857Z,100.00
2023-05-05T20:24:13.284Z,100.00
2023-05-05T20:26:39.721Z,100.00
2023-05-05T20:29:07.844Z,100.00
2023-05-05T20:31:37.418Z,100.00
2023-05-05T20:36:49.957Z,100.00
2023-05-05T20:39:19.278Z,100.00
2023-05-05T20:41:46.334Z,100.00
2023-05-05T20:44:15.616Z,100.00
2023-05-05T20:46:44.865Z,100.00
2023-05-05T20:49:11.492Z,100.00
2023-05-05T20:51:50.079Z,100.00
2023-05-05T20:54:19.025Z,100.00
2023-05-05T20:56:45.755Z,100.00
2023-05-05T20:59:16.046Z,100.00
2023-05-05T21:01:52.694Z,100.00
2023-05-05T21:04:19.027Z,100.00
2023-05-05T21:06:49.558Z,100.00
2023-05-05T21:09:21.353Z,100.00
2023-05-05T21:11:48.954Z,100.00
2023-05-05T21:14:15.496Z,100.00
2023-05-05T21:16:45.906Z,100.00
2023-05-05T21:19:27.990Z,100.00
2023-05-05T21:21:59.353Z,100.00
2023-05-05T21:24:25.974Z,100.00
2023-05-05T21:26:52.430Z,100.00
2023-05-05T21:29:31.670Z,100.00
2023-05-05T21:32:04.809Z,100.00
2023-05-05T21:34:31.396Z,100.00
2023-05-05T21:36:57.978Z,100.00
2023-05-05T21:39:28.235Z,100.00
2023-05-05T21:41:55.582Z,100.00
2023-05-05T21:44:22.049Z,100.00
2023-05-05T21:46:50.768Z,100.00
2023-05-05T21:49:20.006Z,100.00
2023-05-05T21:51:46.497Z,100.00
2023-05-05T21:54:13.572Z,100.00
2023-05-05T21:56:47.435Z,100.00
2023-05-05T21:59:17.228Z,100.00
2023-05-05T22:01:49.303Z,100.00
2023-05-05T22:07:09.640Z,100.00
2023-05-05T22:09:36.042Z,100.00
2023-05-05T22:12:06.875Z,100.00
2023-05-05T22:14:36.033Z,100.00
2023-05-05T22:17:04.767Z,100.00
2023-05-05T22:19:32.302Z,100.00
2023-05-05T22:21:58.835Z,100.00
2023-05-05T22:24:25.673Z,100.00
2023-05-05T22:27:04.494Z,100.00
2023-05-05T22:29:39.042Z,100.00
2023-05-05T22:32:09.468Z,100.00
2023-05-05T22:37:41.142Z,100.00
2023-05-05T22:40:12.825Z,100.00
2023-05-05T22:42:41.630Z,100.00
2023-05-05T22:45:13.475Z,100.00
2023-05-05T22:47:40.024Z,100.00
2023-05-05T22:50:10.012Z,100.00
2023-05-05T22:52:36.579Z,100.00
2023-05-05T22:55:03.466Z,100.00
2023-05-05T23:00:14.935Z,100.00
2023-05-05T23:02:44.143Z,100.00
2023-05-05T23:05:18.531Z,100.00
2023-05-05T23:07:44.876Z,100.00
2023-05-05T23:10:11.416Z,100.00
2023-05-05T23:12:41.182Z,100.00
2023-05-05T23:15:11.211Z,100.00
2023-05-05T23:20:26.937Z,100.00
2023-05-05T23:22:56.118Z,100.00
2023-05-05T23:25:25.699Z,100.00
2023-05-05T23:27:52.148Z,100.00
2023-05-05T23:30:18.789Z,100.00
2023-05-05T23:32:45.950Z,100.00
2023-05-05T23:35:15.629Z,100.00
2023-05-05T23:37:42.089Z,100.00
2023-05-05T23:40:09.058Z,100.00
2023-05-05T23:42:35.476Z,100.00
2023-05-05T23:45:01.922Z,100.00
2023-05-05T23:47:28.325Z,100.00
2023-05-05T23:49:54.686Z,100.00
2023-05-05T23:52:24.669Z,100.00
2023-05-05T23:54:53.917Z,100.00
2023-05-05T23:57:21.041Z,100.00
2023-05-05T23:59:50.252Z,100.00
